Aérodrome :
LOGIN :

S'inscrire | Disclaimer

   EN    FR    IT 

 










Légende :    VFR   VFR Marginal   IFR   IFR Intensif   IFR Très Intensif
Visi : 
Plafond : 
>= 8 km
>= 3000ft
5 à 8 km
1000 à 3000 ft
1500m à 5 km
500 à 1000 ft
800 à 1500m
200 à 500 ft
< 800m
< 200 ft
Symboles :   Orages  Brouillard  Fortes neiges  Fortes précipitations  Vent > 20 kt
SIGMETs :   Divers  Orages  Givrage  Turbulence  Onde Orograph.  Cendres Volcan.







- Altitude de l'aérodrome : 49 ft
- Code IATA : GLZ


EHGR - Gilze-Rijen Airbase

DERNIER METAR :
  • 221155Z AUTO VRB05KT 9999 BKN250 25/12 Q1012 BLU 04007KT CAVOK

METARs EXPIRÉS :
  • 221142Z AUTO VRB05KT 9999 SCT260 24/12 Q1012 BLU 04007KT CAVOK
  • 221125Z AUTO 10007KT 040V150 9999 NCD 24/12 Q1012 BLU 07007KT 9999 FEW044 SCT270
  • 221055Z AUTO 07007KT 340V140 9999 NCD 24/13 Q1012 BLU 07007KT 9999 FEW044 SCT270
  • 221038Z AUTO 06008KT 350V130 9999 FEW270 23/12 Q1012 BLU 07007KT 9999 FEW044 SCT270
  • 221025Z AUTO 08008KT 360V160 9999 BKN270 23/13 Q1012 BLU 07007KT 9999 FEW038 TEMPO VRB10G25KT 3000 TSRAGR SCT035CB SCT050
  • 220955Z AUTO 08007KT 040V140 9999 FEW040CB 23/13 Q1012 BLU 07007KT 9999 FEW038 TEMPO VRB10G25KT 3000 TSRAGR SCT035CB SCT050
  • 220945Z AUTO 08006KT 020V140 9999 NCD 22/13 Q1012 BLU 07007KT 9999 FEW038 TEMPO VRB10G25KT 3000 TSRAGR SCT035CB SCT050
  • 220925Z AUTO 07007KT 030V130 9999 TS FEW039CB 23/13 Q1012 BLU 04007KT CAVOK

TAF TAF EHGR
Valide du 22 à 09h jusqu'au 22 à 21h UTC


220818Z 2209/2221 06006KT 9999 FEW030 SCT060
PROB40
TEMPO 2213/2221 VRB12G30KT 2000 SHRA TSRAGR FEW025 SCT035CB BKN040
Pas de NOTAMs connus pour ce terrain.



MET'MAP, la Météo Aéronautique d'un coup d'oeil ! - Copyright ORBIFLY Décembre 2007 - Disclaimer

ORBIFLY MET'MAP TEAM :

Programmation & Développement : Alexandra Zaïnal
Conception & Développement : Baudouin d'Aumeries
Co-Programmation & Développement : Marc-Olivier Méhu
Soutien technique & logistique : Manuel Goepfert

Contact : metmap@orbifly.com




SOURCES & CREDITS :

   NOAA